createdAt,value
2023-04-02T00:00:20.042Z,1.88
2023-04-02T00:05:16.385Z,2.15
2023-04-02T00:10:35.540Z,2.45
2023-04-02T00:15:32.869Z,2.85
2023-04-02T00:20:36.049Z,2.90
2023-04-02T00:25:42.654Z,3.35
2023-04-02T00:30:46.858Z,2.47
2023-04-02T00:35:43.305Z,2.72
2023-04-02T00:40:39.775Z,2.90
2023-04-02T00:45:38.757Z,3.00
2023-04-02T00:50:41.007Z,2.20
2023-04-02T00:55:40.356Z,2.75
2023-04-02T01:00:37.479Z,2.25
2023-04-02T01:05:36.958Z,2.95
2023-04-02T01:10:55.674Z,2.83
2023-04-02T01:16:04.614Z,2.70
2023-04-02T01:21:21.939Z,2.47
2023-04-02T01:26:46.121Z,3.10
2023-04-02T01:31:45.736Z,3.13
2023-04-02T01:37:03.270Z,3.38
2023-04-02T01:42:15.834Z,3.28
2023-04-02T01:47:15.354Z,3.38
2023-04-02T01:52:33.493Z,3.55
2023-04-02T01:57:30.598Z,4.00
2023-04-02T02:02:27.657Z,3.42
2023-04-02T02:07:25.993Z,3.30
2023-04-02T02:12:22.617Z,2.88
2023-04-02T02:17:27.102Z,3.40
2023-04-02T02:22:34.039Z,4.78
2023-04-02T02:27:39.628Z,5.80
2023-04-02T02:32:43.215Z,5.57
2023-04-02T02:37:45.577Z,5.78
2023-04-02T02:42:48.612Z,4.68
2023-04-02T02:47:46.117Z,5.05
2023-04-02T02:52:46.700Z,5.25
2023-04-02T02:57:58.184Z,4.88
2023-04-02T03:02:57.231Z,6.75
2023-04-02T03:07:56.563Z,4.80
2023-04-02T03:13:19.815Z,4.95
2023-04-02T03:18:38.126Z,4.70
2023-04-02T03:23:46.061Z,4.70
2023-04-02T03:29:07.421Z,4.50
2023-04-02T03:34:33.147Z,4.03
2023-04-02T03:39:54.793Z,5.13
2023-04-02T03:45:03.193Z,3.55
2023-04-02T03:50:13.403Z,3.10
2023-04-02T03:55:21.432Z,4.68
2023-04-02T04:00:27.213Z,3.73
2023-04-02T04:05:31.923Z,3.72
2023-04-02T04:10:30.415Z,3.55
2023-04-02T04:15:32.877Z,3.88
2023-04-02T04:20:45.992Z,3.15
2023-04-02T04:25:42.411Z,3.15
2023-04-02T04:31:00.121Z,2.92
2023-04-02T04:35:58.667Z,3.10
2023-04-02T04:41:03.716Z,2.90
2023-04-02T04:46:06.075Z,2.28
2023-04-02T04:51:05.834Z,1.83
2023-04-02T04:56:16.527Z,2.00
2023-04-02T05:01:40.589Z,2.10
2023-04-02T05:06:40.052Z,2.20
2023-04-02T05:11:45.744Z,2.35
2023-04-02T05:17:01.386Z,2.35
2023-04-02T05:22:06.180Z,1.92
2023-04-02T05:27:12.510Z,2.38
2023-04-02T05:32:25.813Z,2.67
2023-04-02T05:37:29.806Z,2.53
2023-04-02T05:42:32.423Z,2.42
2023-04-02T05:47:31.981Z,2.55
2023-04-02T05:52:36.100Z,2.20
2023-04-02T05:57:46.747Z,2.08
2023-04-02T06:02:55.300Z,2.47
2023-04-02T06:08:00.877Z,2.65
2023-04-02T06:13:06.360Z,1.92
2023-04-02T06:18:09.562Z,2.22
2023-04-02T06:23:18.507Z,2.15
